sensor_id;sensor_type;location;lat;lon;timestamp;P1;durP1;ratioP1;P2;durP2;ratioP2
16403;SDS011;8311;50.158;8.642;2022-12-20T00:00:43;7.03;;;2.78;;
16403;SDS011;8311;50.158;8.642;2022-12-20T00:03:38;6.95;;;5.10;;
16403;SDS011;8311;50.158;8.642;2022-12-20T00:06:32;7.28;;;4.50;;
16403;SDS011;8311;50.158;8.642;2022-12-20T00:09:29;6.13;;;3.97;;
16403;SDS011;8311;50.158;8.642;2022-12-20T00:12:22;7.32;;;3.97;;
16403;SDS011;8311;50.158;8.642;2022-12-20T00:15:16;5.80;;;3.88;;
16403;SDS011;8311;50.158;8.642;2022-12-20T00:18:09;6.38;;;4.00;;
16403;SDS011;8311;50.158;8.642;2022-12-20T00:21:04;5.72;;;4.20;;
16403;SDS011;8311;50.158;8.642;2022-12-20T00:23:58;6.70;;;4.00;;
16403;SDS011;8311;50.158;8.642;2022-12-20T00:26:51;5.82;;;3.78;;
16403;SDS011;8311;50.158;8.642;2022-12-20T00:29:44;5.57;;;3.53;;
16403;SDS011;8311;50.158;8.642;2022-12-20T00:32:37;5.30;;;3.70;;
16403;SDS011;8311;50.158;8.642;2022-12-20T00:35:30;7.15;;;3.72;;
16403;SDS011;8311;50.158;8.642;2022-12-20T00:38:25;5.85;;;3.05;;
16403;SDS011;8311;50.158;8.642;2022-12-20T00:41:20;4.70;;;3.00;;
16403;SDS011;8311;50.158;8.642;2022-12-20T00:44:14;5.68;;;3.95;;
16403;SDS011;8311;50.158;8.642;2022-12-20T00:47:07;4.90;;;3.03;;
16403;SDS011;8311;50.158;8.642;2022-12-20T00:50:00;4.57;;;2.97;;
16403;SDS011;8311;50.158;8.642;2022-12-20T00:52:53;4.95;;;2.67;;
16403;SDS011;8311;50.158;8.642;2022-12-20T00:55:47;4.07;;;2.92;;
16403;SDS011;8311;50.158;8.642;2022-12-20T00:58:41;5.85;;;3.30;;
16403;SDS011;8311;50.158;8.642;2022-12-20T01:01:34;4.45;;;2.80;;
16403;SDS011;8311;50.158;8.642;2022-12-20T01:04:27;4.82;;;2.97;;
16403;SDS011;8311;50.158;8.642;2022-12-20T01:07:20;4.75;;;3.13;;
16403;SDS011;8311;50.158;8.642;2022-12-20T01:10:15;5.63;;;3.15;;
16403;SDS011;8311;50.158;8.642;2022-12-20T01:13:09;4.47;;;3.05;;
16403;SDS011;8311;50.158;8.642;2022-12-20T01:16:03;5.53;;;2.90;;
16403;SDS011;8311;50.158;8.642;2022-12-20T01:18:57;4.70;;;2.78;;
16403;SDS011;8311;50.158;8.642;2022-12-20T01:21:50;4.68;;;3.10;;
16403;SDS011;8311;50.158;8.642;2022-12-20T01:24:43;4.90;;;2.72;;
16403;SDS011;8311;50.158;8.642;2022-12-20T01:27:36;4.15;;;2.80;;
16403;SDS011;8311;50.158;8.642;2022-12-20T01:30:30;6.15;;;3.28;;
16403;SDS011;8311;50.158;8.642;2022-12-20T01:33:24;3.72;;;2.83;;
16403;SDS011;8311;50.158;8.642;2022-12-20T01:36:18;4.57;;;3.13;;
16403;SDS011;8311;50.158;8.642;2022-12-20T01:39:15;5.03;;;3.10;;
16403;SDS011;8311;50.158;8.642;2022-12-20T01:42:10;5.50;;;2.95;;
16403;SDS011;8311;50.158;8.642;2022-12-20T01:45:07;4.40;;;2.80;;
16403;SDS011;8311;50.158;8.642;2022-12-20T01:48:06;4.95;;;3.30;;
16403;SDS011;8311;50.158;8.642;2022-12-20T01:50:59;4.78;;;2.85;;
16403;SDS011;8311;50.158;8.642;2022-12-20T01:53:55;3.75;;;2.83;;
16403;SDS011;8311;50.158;8.642;2022-12-20T01:56:54;4.00;;;2.55;;
16403;SDS011;8311;50.158;8.642;2022-12-20T01:59:50;4.47;;;2.90;;
16403;SDS011;8311;50.158;8.642;2022-12-20T02:02:46;4.90;;;3.08;;
16403;SDS011;8311;50.158;8.642;2022-12-20T02:05:42;3.97;;;2.78;;
16403;SDS011;8311;50.158;8.642;2022-12-20T02:08:36;4.80;;;2.88;;
16403;SDS011;8311;50.158;8.642;2022-12-20T02:11:45;4.60;;;2.88;;
16403;SDS011;8311;50.158;8.642;2022-12-20T02:14:57;5.10;;;3.05;;
16403;SDS011;8311;50.158;8.642;2022-12-20T02:18:06;5.30;;;3.00;;
16403;SDS011;8311;50.158;8.642;2022-12-20T02:21:16;4.10;;;2.53;;
16403;SDS011;8311;50.158;8.642;2022-12-20T02:24:25;4.60;;;3.13;;
16403;SDS011;8311;50.158;8.642;2022-12-20T02:27:34;4.10;;;2.70;;
16403;SDS011;8311;50.158;8.642;2022-12-20T02:30:36;3.80;;;2.65;;
16403;SDS011;8311;50.158;8.642;2022-12-20T02:33:33;4.55;;;2.65;;
16403;SDS011;8311;50.158;8.642;2022-12-20T02:36:26;3.95;;;2.70;;
16403;SDS011;8311;50.158;8.642;2022-12-20T02:39:19;3.25;;;2.40;;
16403;SDS011;8311;50.158;8.642;2022-12-20T02:42:14;4.32;;;2.50;;
16403;SDS011;8311;50.158;8.642;2022-12-20T02:45:11;3.50;;;2.42;;
16403;SDS011;8311;50.158;8.642;2022-12-20T02:48:08;3.90;;;2.65;;
16403;SDS011;8311;50.158;8.642;2022-12-20T02:51:03;3.83;;;2.33;;
16403;SDS011;8311;50.158;8.642;2022-12-20T02:53:57;3.35;;;2.20;;
16403;SDS011;8311;50.158;8.642;2022-12-20T02:56:54;3.97;;;2.50;;
16403;SDS011;8311;50.158;8.642;2022-12-20T02:59:54;3.85;;;2.60;;
16403;SDS011;8311;50.158;8.642;2022-12-20T03:02:51;4.55;;;2.42;;
16403;SDS011;8311;50.158;8.642;2022-12-20T03:06:03;3.92;;;2.65;;
16403;SDS011;8311;50.158;8.642;2022-12-20T03:08:57;4.72;;;2.72;;
16403;SDS011;8311;50.158;8.642;2022-12-20T03:11:50;3.85;;;2.78;;
16403;SDS011;8311;50.158;8.642;2022-12-20T03:14:44;4.28;;;2.50;;
16403;SDS011;8311;50.158;8.642;2022-12-20T03:17:37;4.38;;;2.47;;
16403;SDS011;8311;50.158;8.642;2022-12-20T03:20:30;3.95;;;2.70;;
16403;SDS011;8311;50.158;8.642;2022-12-20T03:23:24;3.63;;;2.30;;
16403;SDS011;8311;50.158;8.642;2022-12-20T03:26:17;4.07;;;2.70;;
16403;SDS011;8311;50.158;8.642;2022-12-20T03:29:11;3.15;;;2.08;;
16403;SDS011;8311;50.158;8.642;2022-12-20T03:32:04;4.05;;;2.53;;
16403;SDS011;8311;50.158;8.642;2022-12-20T03:34:57;4.28;;;2.50;;
16403;SDS011;8311;50.158;8.642;2022-12-20T03:37:50;3.47;;;2.20;;
16403;SDS011;8311;50.158;8.642;2022-12-20T03:40:45;3.60;;;2.40;;
16403;SDS011;8311;50.158;8.642;2022-12-20T03:43:37;3.35;;;2.30;;
16403;SDS011;8311;50.158;8.642;2022-12-20T03:46:30;4.22;;;2.33;;
16403;SDS011;8311;50.158;8.642;2022-12-20T03:49:23;3.67;;;2.22;;
16403;SDS011;8311;50.158;8.642;2022-12-20T03:52:17;4.05;;;2.47;;
16403;SDS011;8311;50.158;8.642;2022-12-20T03:55:10;3.35;;;2.40;;
16403;SDS011;8311;50.158;8.642;2022-12-20T03:58:19;3.20;;;2.22;;
16403;SDS011;8311;50.158;8.642;2022-12-20T04:01:19;3.35;;;2.42;;
16403;SDS011;8311;50.158;8.642;2022-12-20T04:04:14;3.95;;;2.70;;
16403;SDS011;8311;50.158;8.642;2022-12-20T04:07:07;3.72;;;2.17;;
16403;SDS011;8311;50.158;8.642;2022-12-20T04:10:00;3.95;;;2.20;;
16403;SDS011;8311;50.158;8.642;2022-12-20T04:12:53;3.17;;;2.30;;
16403;SDS011;8311;50.158;8.642;2022-12-20T04:15:47;3.83;;;2.30;;
16403;SDS011;8311;50.158;8.642;2022-12-20T04:18:47;4.05;;;2.15;;
16403;SDS011;8311;50.158;8.642;2022-12-20T04:21:40;3.45;;;2.47;;
16403;SDS011;8311;50.158;8.642;2022-12-20T04:24:33;3.13;;;2.20;;
16403;SDS011;8311;50.158;8.642;2022-12-20T04:27:26;3.28;;;2.13;;
16403;SDS011;8311;50.158;8.642;2022-12-20T04:30:20;3.08;;;1.92;;
16403;SDS011;8311;50.158;8.642;2022-12-20T04:33:15;3.83;;;2.50;;
16403;SDS011;8311;50.158;8.642;2022-12-20T04:36:08;3.83;;;2.30;;
16403;SDS011;8311;50.158;8.642;2022-12-20T04:39:01;3.67;;;2.38;;
16403;SDS011;8311;50.158;8.642;2022-12-20T04:41:54;3.53;;;2.20;;
16403;SDS011;8311;50.158;8.642;2022-12-20T04:44:47;3.25;;;1.98;;
16403;SDS011;8311;50.158;8.642;2022-12-20T04:47:40;3.55;;;2.25;;
16403;SDS011;8311;50.158;8.642;2022-12-20T04:50:34;3.85;;;2.58;;
16403;SDS011;8311;50.158;8.642;2022-12-20T04:53:27;3.45;;;2.40;;
16403;SDS011;8311;50.158;8.642;2022-12-20T04:56:38;3.20;;;2.17;;
16403;SDS011;8311;50.158;8.642;2022-12-20T04:59:31;2.63;;;1.90;;
16403;SDS011;8311;50.158;8.642;2022-12-20T05:02:26;3.30;;;2.08;;
16403;SDS011;8311;50.158;8.642;2022-12-20T05:05:19;2.90;;;2.15;;
16403;SDS011;8311;50.158;8.642;2022-12-20T05:08:13;3.70;;;2.38;;
16403;SDS011;8311;50.158;8.642;2022-12-20T05:11:06;3.10;;;2.22;;
16403;SDS011;8311;50.158;8.642;2022-12-20T05:13:59;3.60;;;2.35;;
16403;SDS011;8311;50.158;8.642;2022-12-20T05:16:52;3.65;;;2.00;;
16403;SDS011;8311;50.158;8.642;2022-12-20T05:19:45;4.00;;;2.63;;
16403;SDS011;8311;50.158;8.642;2022-12-20T05:22:38;3.00;;;2.03;;
16403;SDS011;8311;50.158;8.642;2022-12-20T05:25:52;2.60;;;1.83;;
16403;SDS011;8311;50.158;8.642;2022-12-20T05:29:02;3.10;;;2.08;;
16403;SDS011;8311;50.158;8.642;2022-12-20T05:31:55;3.15;;;2.17;;
16403;SDS011;8311;50.158;8.642;2022-12-20T05:34:48;3.40;;;2.30;;
16403;SDS011;8311;50.158;8.642;2022-12-20T05:37:41;2.75;;;1.77;;
16403;SDS011;8311;50.158;8.642;2022-12-20T05:40:35;3.80;;;2.40;;
16403;SDS011;8311;50.158;8.642;2022-12-20T05:43:29;3.88;;;2.20;;
16403;SDS011;8311;50.158;8.642;2022-12-20T05:46:22;2.45;;;1.70;;
16403;SDS011;8311;50.158;8.642;2022-12-20T05:49:15;3.03;;;1.88;;
16403;SDS011;8311;50.158;8.642;2022-12-20T05:52:10;3.25;;;2.15;;
16403;SDS011;8311;50.158;8.642;2022-12-20T05:55:03;2.80;;;1.90;;
16403;SDS011;8311;50.158;8.642;2022-12-20T05:57:56;3.55;;;2.30;;
16403;SDS011;8311;50.158;8.642;2022-12-20T06:00:51;3.25;;;2.40;;
16403;SDS011;8311;50.158;8.642;2022-12-20T06:03:44;3.72;;;2.13;;
16403;SDS011;8311;50.158;8.642;2022-12-20T06:06:38;3.38;;;2.05;;
16403;SDS011;8311;50.158;8.642;2022-12-20T06:09:31;2.60;;;1.95;;
16403;SDS011;8311;50.158;8.642;2022-12-20T06:12:24;3.08;;;2.03;;
16403;SDS011;8311;50.158;8.642;2022-12-20T06:15:17;2.90;;;2.13;;
16403;SDS011;8311;50.158;8.642;2022-12-20T06:18:11;3.42;;;2.03;;
16403;SDS011;8311;50.158;8.642;2022-12-20T06:21:04;3.35;;;2.10;;
16403;SDS011;8311;50.158;8.642;2022-12-20T06:23:57;3.47;;;1.92;;
16403;SDS011;8311;50.158;8.642;2022-12-20T06:26:51;3.58;;;2.00;;
16403;SDS011;8311;50.158;8.642;2022-12-20T06:29:44;2.97;;;1.95;;
16403;SDS011;8311;50.158;8.642;2022-12-20T06:32:42;2.47;;;1.80;;
16403;SDS011;8311;50.158;8.642;2022-12-20T06:35:37;2.83;;;1.88;;
16403;SDS011;8311;50.158;8.642;2022-12-20T06:38:30;3.63;;;2.20;;
16403;SDS011;8311;50.158;8.642;2022-12-20T06:41:25;3.28;;;1.88;;
16403;SDS011;8311;50.158;8.642;2022-12-20T06:44:17;3.58;;;2.30;;
16403;SDS011;8311;50.158;8.642;2022-12-20T06:47:10;2.95;;;1.95;;
16403;SDS011;8311;50.158;8.642;2022-12-20T06:50:04;2.58;;;1.88;;
16403;SDS011;8311;50.158;8.642;2022-12-20T06:53:01;3.25;;;2.10;;
16403;SDS011;8311;50.158;8.642;2022-12-20T06:55:54;3.22;;;2.05;;
16403;SDS011;8311;50.158;8.642;2022-12-20T06:58:48;2.53;;;1.80;;
16403;SDS011;8311;50.158;8.642;2022-12-20T07:01:40;3.17;;;1.77;;
16403;SDS011;8311;50.158;8.642;2022-12-20T07:04:33;3.67;;;2.10;;
16403;SDS011;8311;50.158;8.642;2022-12-20T07:07:27;2.90;;;2.10;;
16403;SDS011;8311;50.158;8.642;2022-12-20T07:10:22;2.90;;;2.03;;
16403;SDS011;8311;50.158;8.642;2022-12-20T07:13:15;3.65;;;1.98;;
16403;SDS011;8311;50.158;8.642;2022-12-20T07:16:08;3.30;;;2.28;;
16403;SDS011;8311;50.158;8.642;2022-12-20T07:19:01;3.45;;;2.08;;
16403;SDS011;8311;50.158;8.642;2022-12-20T07:21:55;3.10;;;2.00;;
16403;SDS011;8311;50.158;8.642;2022-12-20T07:24:51;3.65;;;2.35;;
16403;SDS011;8311;50.158;8.642;2022-12-20T07:27:46;2.67;;;1.85;;
16403;SDS011;8311;50.158;8.642;2022-12-20T07:30:40;2.83;;;1.90;;
16403;SDS011;8311;50.158;8.642;2022-12-20T07:33:33;2.60;;;2.00;;
16403;SDS011;8311;50.158;8.642;2022-12-20T07:36:27;2.58;;;2.00;;
16403;SDS011;8311;50.158;8.642;2022-12-20T07:39:20;3.28;;;2.25;;
16403;SDS011;8311;50.158;8.642;2022-12-20T07:42:13;12.50;;;2.90;;
16403;SDS011;8311;50.158;8.642;2022-12-20T07:45:08;4.05;;;2.25;;
16403;SDS011;8311;50.158;8.642;2022-12-20T07:48:01;3.88;;;2.70;;
16403;SDS011;8311;50.158;8.642;2022-12-20T07:51:06;4.50;;;2.17;;
16403;SDS011;8311;50.158;8.642;2022-12-20T07:54:02;7.35;;;2.78;;
16403;SDS011;8311;50.158;8.642;2022-12-20T07:56:59;4.78;;;2.60;;
16403;SDS011;8311;50.158;8.642;2022-12-20T07:59:57;3.55;;;2.40;;
16403;SDS011;8311;50.158;8.642;2022-12-20T08:02:54;5.63;;;2.33;;
16403;SDS011;8311;50.158;8.642;2022-12-20T08:05:52;4.95;;;2.20;;
16403;SDS011;8311;50.158;8.642;2022-12-20T08:08:50;3.75;;;2.25;;
16403;SDS011;8311;50.158;8.642;2022-12-20T08:11:48;4.45;;;2.33;;
16403;SDS011;8311;50.158;8.642;2022-12-20T08:14:41;4.93;;;2.47;;
16403;SDS011;8311;50.158;8.642;2022-12-20T08:17:34;3.63;;;2.17;;
16403;SDS011;8311;50.158;8.642;2022-12-20T08:20:28;3.50;;;2.03;;
16403;SDS011;8311;50.158;8.642;2022-12-20T08:23:21;4.13;;;1.85;;
16403;SDS011;8311;50.158;8.642;2022-12-20T08:26:14;3.38;;;2.10;;
16403;SDS011;8311;50.158;8.642;2022-12-20T08:29:08;3.50;;;1.92;;
16403;SDS011;8311;50.158;8.642;2022-12-20T08:32:01;3.63;;;2.20;;
16403;SDS011;8311;50.158;8.642;2022-12-20T08:34:54;3.88;;;2.30;;
16403;SDS011;8311;50.158;8.642;2022-12-20T08:37:51;3.08;;;2.30;;
16403;SDS011;8311;50.158;8.642;2022-12-20T08:40:45;3.13;;;1.92;;
16403;SDS011;8311;50.158;8.642;2022-12-20T08:43:37;5.18;;;2.42;;
16403;SDS011;8311;50.158;8.642;2022-12-20T08:46:32;3.72;;;2.08;;
16403;SDS011;8311;50.158;8.642;2022-12-20T08:49:26;3.67;;;1.75;;
16403;SDS011;8311;50.158;8.642;2022-12-20T08:52:19;3.70;;;2.10;;
16403;SDS011;8311;50.158;8.642;2022-12-20T08:55:13;3.30;;;2.00;;
16403;SDS011;8311;50.158;8.642;2022-12-20T08:58:07;4.03;;;1.70;;
16403;SDS011;8311;50.158;8.642;2022-12-20T09:01:00;2.67;;;1.73;;
16403;SDS011;8311;50.158;8.642;2022-12-20T09:03:57;3.38;;;2.05;;
16403;SDS011;8311;50.158;8.642;2022-12-20T09:06:50;2.03;;;1.45;;
16403;SDS011;8311;50.158;8.642;2022-12-20T09:09:45;3.83;;;1.95;;
16403;SDS011;8311;50.158;8.642;2022-12-20T09:12:40;3.35;;;1.92;;
16403;SDS011;8311;50.158;8.642;2022-12-20T09:15:34;4.88;;;2.10;;
16403;SDS011;8311;50.158;8.642;2022-12-20T09:18:28;3.03;;;1.77;;
16403;SDS011;8311;50.158;8.642;2022-12-20T09:21:20;2.67;;;1.80;;
16403;SDS011;8311;50.158;8.642;2022-12-20T09:24:14;2.92;;;1.88;;
16403;SDS011;8311;50.158;8.642;2022-12-20T09:27:07;3.33;;;1.85;;
16403;SDS011;8311;50.158;8.642;2022-12-20T09:30:02;3.97;;;2.03;;
16403;SDS011;8311;50.158;8.642;2022-12-20T09:32:55;3.28;;;2.10;;
16403;SDS011;8311;50.158;8.642;2022-12-20T09:36:00;3.20;;;2.20;;
16403;SDS011;8311;50.158;8.642;2022-12-20T09:38:53;25.40;;;5.55;;
16403;SDS011;8311;50.158;8.642;2022-12-20T09:41:48;18.23;;;4.90;;
16403;SDS011;8311;50.158;8.642;2022-12-20T09:44:40;15.75;;;4.15;;
16403;SDS011;8311;50.158;8.642;2022-12-20T09:47:36;17.85;;;3.67;;
16403;SDS011;8311;50.158;8.642;2022-12-20T09:50:35;17.13;;;3.97;;
16403;SDS011;8311;50.158;8.642;2022-12-20T09:53:36;18.00;;;4.20;;
16403;SDS011;8311;50.158;8.642;2022-12-20T09:56:35;11.77;;;3.83;;
16403;SDS011;8311;50.158;8.642;2022-12-20T09:59:30;12.35;;;3.83;;
16403;SDS011;8311;50.158;8.642;2022-12-20T10:02:32;11.90;;;3.63;;
16403;SDS011;8311;50.158;8.642;2022-12-20T10:05:51;10.85;;;3.70;;
16403;SDS011;8311;50.158;8.642;2022-12-20T10:08:48;10.25;;;3.38;;
16403;SDS011;8311;50.158;8.642;2022-12-20T10:11:53;23.45;;;3.97;;
16403;SDS011;8311;50.158;8.642;2022-12-20T10:14:59;16.77;;;4.07;;
16403;SDS011;8311;50.158;8.642;2022-12-20T10:18:08;14.05;;;3.97;;
16403;SDS011;8311;50.158;8.642;2022-12-20T10:21:16;8.45;;;2.85;;
16403;SDS011;8311;50.158;8.642;2022-12-20T10:24:14;12.18;;;3.75;;
16403;SDS011;8311;50.158;8.642;2022-12-20T10:27:10;16.00;;;3.85;;
16403;SDS011;8311;50.158;8.642;2022-12-20T10:30:19;7.75;;;3.00;;
16403;SDS011;8311;50.158;8.642;2022-12-20T10:33:18;7.57;;;3.30;;
16403;SDS011;8311;50.158;8.642;2022-12-20T10:36:20;10.38;;;3.00;;
16403;SDS011;8311;50.158;8.642;2022-12-20T10:39:15;8.35;;;3.22;;
16403;SDS011;8311;50.158;8.642;2022-12-20T10:42:20;13.13;;;3.90;;
16403;SDS011;8311;50.158;8.642;2022-12-20T10:45:24;7.20;;;2.90;;
16403;SDS011;8311;50.158;8.642;2022-12-20T10:48:30;8.30;;;3.15;;
16403;SDS011;8311;50.158;8.642;2022-12-20T10:51:26;6.93;;;2.58;;
16403;SDS011;8311;50.158;8.642;2022-12-20T10:54:21;9.25;;;3.13;;
16403;SDS011;8311;50.158;8.642;2022-12-20T10:57:17;9.43;;;3.25;;
16403;SDS011;8311;50.158;8.642;2022-12-20T11:00:16;9.23;;;2.92;;
16403;SDS011;8311;50.158;8.642;2022-12-20T11:03:20;8.23;;;2.88;;
16403;SDS011;8311;50.158;8.642;2022-12-20T11:06:15;8.32;;;2.95;;
16403;SDS011;8311;50.158;8.642;2022-12-20T11:09:25;8.75;;;3.10;;
16403;SDS011;8311;50.158;8.642;2022-12-20T11:12:21;12.52;;;3.10;;
16403;SDS011;8311;50.158;8.642;2022-12-20T11:15:18;7.80;;;2.90;;
16403;SDS011;8311;50.158;8.642;2022-12-20T11:18:27;5.78;;;2.40;;
16403;SDS011;8311;50.158;8.642;2022-12-20T11:21:30;9.15;;;3.17;;
16403;SDS011;8311;50.158;8.642;2022-12-20T11:24:34;8.50;;;3.13;;
16403;SDS011;8311;50.158;8.642;2022-12-20T11:27:38;8.93;;;2.88;;
16403;SDS011;8311;50.158;8.642;2022-12-20T11:30:38;7.53;;;3.00;;
16403;SDS011;8311;50.158;8.642;2022-12-20T11:33:40;8.55;;;2.78;;
16403;SDS011;8311;50.158;8.642;2022-12-20T11:36:52;7.15;;;2.60;;
16403;SDS011;8311;50.158;8.642;2022-12-20T11:40:04;6.07;;;2.83;;
16403;SDS011;8311;50.158;8.642;2022-12-20T11:43:15;6.68;;;2.83;;
16403;SDS011;8311;50.158;8.642;2022-12-20T11:46:20;9.15;;;2.70;;
16403;SDS011;8311;50.158;8.642;2022-12-20T11:49:31;5.43;;;2.50;;
16403;SDS011;8311;50.158;8.642;2022-12-20T11:52:34;6.95;;;2.60;;
16403;SDS011;8311;50.158;8.642;2022-12-20T11:55:35;4.80;;;2.60;;
16403;SDS011;8311;50.158;8.642;2022-12-20T11:58:32;6.10;;;2.72;;
16403;SDS011;8311;50.158;8.642;2022-12-20T12:01:39;5.65;;;2.47;;
16403;SDS011;8311;50.158;8.642;2022-12-20T12:04:36;6.88;;;2.50;;
16403;SDS011;8311;50.158;8.642;2022-12-20T12:07:33;6.20;;;2.80;;
16403;SDS011;8311;50.158;8.642;2022-12-20T12:10:28;4.70;;;2.28;;
16403;SDS011;8311;50.158;8.642;2022-12-20T12:13:28;4.82;;;2.38;;
16403;SDS011;8311;50.158;8.642;2022-12-20T12:16:24;9.52;;;2.30;;
16403;SDS011;8311;50.158;8.642;2022-12-20T12:19:23;7.80;;;2.75;;
16403;SDS011;8311;50.158;8.642;2022-12-20T12:22:22;5.63;;;2.50;;
16403;SDS011;8311;50.158;8.642;2022-12-20T12:25:20;9.05;;;2.55;;
16403;SDS011;8311;50.158;8.642;2022-12-20T12:28:14;6.57;;;2.28;;
16403;SDS011;8311;50.158;8.642;2022-12-20T12:31:13;9.45;;;2.40;;
16403;SDS011;8311;50.158;8.642;2022-12-20T12:34:13;6.15;;;2.42;;
16403;SDS011;8311;50.158;8.642;2022-12-20T12:37:25;9.10;;;2.40;;
16403;SDS011;8311;50.158;8.642;2022-12-20T12:40:42;5.90;;;2.50;;
16403;SDS011;8311;50.158;8.642;2022-12-20T12:44:01;5.00;;;2.45;;
16403;SDS011;8311;50.158;8.642;2022-12-20T12:47:27;5.15;;;2.40;;
16403;SDS011;8311;50.158;8.642;2022-12-20T12:50:30;10.70;;;2.88;;
16403;SDS011;8311;50.158;8.642;2022-12-20T12:53:29;5.07;;;2.30;;
16403;SDS011;8311;50.158;8.642;2022-12-20T12:56:30;7.43;;;2.78;;
16403;SDS011;8311;50.158;8.642;2022-12-20T12:59:40;11.45;;;2.88;;
16403;SDS011;8311;50.158;8.642;2022-12-20T13:02:51;8.27;;;2.80;;
16403;SDS011;8311;50.158;8.642;2022-12-20T13:05:45;9.38;;;2.42;;
16403;SDS011;8311;50.158;8.642;2022-12-20T13:08:45;3.78;;;2.10;;
16403;SDS011;8311;50.158;8.642;2022-12-20T13:11:40;9.13;;;2.88;;
16403;SDS011;8311;50.158;8.642;2022-12-20T13:14:45;11.40;;;3.00;;
16403;SDS011;8311;50.158;8.642;2022-12-20T13:17:44;12.80;;;2.92;;
16403;SDS011;8311;50.158;8.642;2022-12-20T13:20:42;8.75;;;3.10;;
16403;SDS011;8311;50.158;8.642;2022-12-20T13:27:35;8.38;;;2.92;;
16403;SDS011;8311;50.158;8.642;2022-12-20T13:30:31;4.50;;;2.30;;
16403;SDS011;8311;50.158;8.642;2022-12-20T13:33:24;6.05;;;2.97;;
16403;SDS011;8311;50.158;8.642;2022-12-20T13:36:33;7.43;;;2.75;;
16403;SDS011;8311;50.158;8.642;2022-12-20T13:39:29;6.95;;;2.58;;
16403;SDS011;8311;50.158;8.642;2022-12-20T13:42:31;5.70;;;2.67;;
16403;SDS011;8311;50.158;8.642;2022-12-20T13:45:29;6.78;;;2.47;;
16403;SDS011;8311;50.158;8.642;2022-12-20T13:48:24;8.52;;;3.00;;
16403;SDS011;8311;50.158;8.642;2022-12-20T13:51:23;6.53;;;2.60;;
16403;SDS011;8311;50.158;8.642;2022-12-20T13:54:18;6.30;;;2.97;;
16403;SDS011;8311;50.158;8.642;2022-12-20T13:57:20;16.45;;;3.15;;
16403;SDS011;8311;50.158;8.642;2022-12-20T14:00:23;8.00;;;3.15;;
16403;SDS011;8311;50.158;8.642;2022-12-20T14:03:19;4.70;;;2.75;;
16403;SDS011;8311;50.158;8.642;2022-12-20T14:06:15;6.22;;;3.13;;
16403;SDS011;8311;50.158;8.642;2022-12-20T14:09:27;9.32;;;3.38;;
16403;SDS011;8311;50.158;8.642;2022-12-20T14:12:23;6.63;;;3.03;;
16403;SDS011;8311;50.158;8.642;2022-12-20T14:15:29;6.70;;;3.00;;
16403;SDS011;8311;50.158;8.642;2022-12-20T14:18:24;6.78;;;3.30;;
16403;SDS011;8311;50.158;8.642;2022-12-20T14:21:18;7.80;;;2.65;;
16403;SDS011;8311;50.158;8.642;2022-12-20T14:24:12;8.00;;;2.90;;
16403;SDS011;8311;50.158;8.642;2022-12-20T14:27:08;6.80;;;2.83;;
16403;SDS011;8311;50.158;8.642;2022-12-20T14:33:21;6.18;;;3.15;;
16403;SDS011;8311;50.158;8.642;2022-12-20T14:36:20;11.15;;;3.60;;
16403;SDS011;8311;50.158;8.642;2022-12-20T14:39:23;9.85;;;3.22;;
16403;SDS011;8311;50.158;8.642;2022-12-20T14:42:18;7.25;;;3.10;;
16403;SDS011;8311;50.158;8.642;2022-12-20T14:45:16;9.93;;;3.65;;
16403;SDS011;8311;50.158;8.642;2022-12-20T14:48:12;9.15;;;3.28;;
16403;SDS011;8311;50.158;8.642;2022-12-20T14:51:09;7.22;;;3.10;;
16403;SDS011;8311;50.158;8.642;2022-12-20T14:54:06;8.52;;;3.25;;
16403;SDS011;8311;50.158;8.642;2022-12-20T14:57:28;11.77;;;3.45;;
16403;SDS011;8311;50.158;8.642;2022-12-20T15:00:29;5.75;;;2.50;;
16403;SDS011;8311;50.158;8.642;2022-12-20T15:03:23;7.43;;;3.10;;
16403;SDS011;8311;50.158;8.642;2022-12-20T15:06:31;5.32;;;2.92;;
16403;SDS011;8311;50.158;8.642;2022-12-20T15:09:29;5.85;;;3.30;;
16403;SDS011;8311;50.158;8.642;2022-12-20T15:12:22;5.60;;;2.63;;
16403;SDS011;8311;50.158;8.642;2022-12-20T15:15:14;5.32;;;2.83;;
16403;SDS011;8311;50.158;8.642;2022-12-20T15:18:23;5.55;;;2.85;;
16403;SDS011;8311;50.158;8.642;2022-12-20T15:21:16;5.65;;;2.90;;
16403;SDS011;8311;50.158;8.642;2022-12-20T15:24:17;6.65;;;2.80;;
16403;SDS011;8311;50.158;8.642;2022-12-20T15:27:12;5.32;;;3.08;;
16403;SDS011;8311;50.158;8.642;2022-12-20T15:30:09;5.25;;;2.78;;
16403;SDS011;8311;50.158;8.642;2022-12-20T15:33:04;4.85;;;2.45;;
16403;SDS011;8311;50.158;8.642;2022-12-20T15:35:58;5.82;;;2.50;;
16403;SDS011;8311;50.158;8.642;2022-12-20T15:38:51;4.55;;;2.45;;
16403;SDS011;8311;50.158;8.642;2022-12-20T15:42:05;6.13;;;3.08;;
16403;SDS011;8311;50.158;8.642;2022-12-20T15:45:05;3.97;;;2.40;;
16403;SDS011;8311;50.158;8.642;2022-12-20T15:48:04;4.35;;;2.53;;
16403;SDS011;8311;50.158;8.642;2022-12-20T15:51:01;4.70;;;2.55;;
16403;SDS011;8311;50.158;8.642;2022-12-20T15:54:20;5.20;;;2.50;;
16403;SDS011;8311;50.158;8.642;2022-12-20T15:57:18;6.13;;;3.05;;
16403;SDS011;8311;50.158;8.642;2022-12-20T16:00:12;3.80;;;2.33;;
16403;SDS011;8311;50.158;8.642;2022-12-20T16:03:09;6.18;;;3.40;;
16403;SDS011;8311;50.158;8.642;2022-12-20T16:06:07;19.33;;;3.72;;
16403;SDS011;8311;50.158;8.642;2022-12-20T16:09:03;11.65;;;3.92;;
16403;SDS011;8311;50.158;8.642;2022-12-20T16:11:56;7.38;;;2.97;;
16403;SDS011;8311;50.158;8.642;2022-12-20T16:14:50;8.60;;;3.42;;
16403;SDS011;8311;50.158;8.642;2022-12-20T16:17:44;5.65;;;2.90;;
16403;SDS011;8311;50.158;8.642;2022-12-20T16:20:37;9.90;;;3.25;;
16403;SDS011;8311;50.158;8.642;2022-12-20T16:23:31;6.32;;;3.63;;
16403;SDS011;8311;50.158;8.642;2022-12-20T16:26:24;5.68;;;3.20;;
16403;SDS011;8311;50.158;8.642;2022-12-20T16:29:18;5.97;;;3.08;;
16403;SDS011;8311;50.158;8.642;2022-12-20T16:32:13;8.40;;;3.08;;
16403;SDS011;8311;50.158;8.642;2022-12-20T16:35:09;8.50;;;3.15;;
16403;SDS011;8311;50.158;8.642;2022-12-20T16:38:13;12.68;;;3.40;;
16403;SDS011;8311;50.158;8.642;2022-12-20T16:41:11;13.15;;;3.17;;
16403;SDS011;8311;50.158;8.642;2022-12-20T16:44:10;12.52;;;3.50;;
16403;SDS011;8311;50.158;8.642;2022-12-20T16:47:05;11.13;;;4.25;;
16403;SDS011;8311;50.158;8.642;2022-12-20T16:49:59;15.13;;;4.38;;
16403;SDS011;8311;50.158;8.642;2022-12-20T16:52:53;16.85;;;4.05;;
16403;SDS011;8311;50.158;8.642;2022-12-20T16:55:47;15.30;;;3.65;;
16403;SDS011;8311;50.158;8.642;2022-12-20T16:58:40;11.60;;;3.55;;
16403;SDS011;8311;50.158;8.642;2022-12-20T17:01:54;15.77;;;4.93;;
16403;SDS011;8311;50.158;8.642;2022-12-20T17:04:48;15.55;;;4.28;;
16403;SDS011;8311;50.158;8.642;2022-12-20T17:07:42;13.18;;;4.15;;
16403;SDS011;8311;50.158;8.642;2022-12-20T17:10:35;20.13;;;5.30;;
16403;SDS011;8311;50.158;8.642;2022-12-20T17:13:29;27.20;;;4.82;;
16403;SDS011;8311;50.158;8.642;2022-12-20T17:16:25;13.13;;;4.13;;
16403;SDS011;8311;50.158;8.642;2022-12-20T17:19:19;18.70;;;4.53;;
16403;SDS011;8311;50.158;8.642;2022-12-20T17:22:13;21.35;;;5.10;;
16403;SDS011;8311;50.158;8.642;2022-12-20T17:25:23;19.25;;;4.43;;
16403;SDS011;8311;50.158;8.642;2022-12-20T17:28:18;20.92;;;4.47;;
16403;SDS011;8311;50.158;8.642;2022-12-20T17:31:16;17.40;;;4.28;;
16403;SDS011;8311;50.158;8.642;2022-12-20T17:34:16;15.80;;;4.50;;
16403;SDS011;8311;50.158;8.642;2022-12-20T17:37:11;17.85;;;5.05;;
16403;SDS011;8311;50.158;8.642;2022-12-20T17:40:04;17.92;;;4.40;;
16403;SDS011;8311;50.158;8.642;2022-12-20T17:43:00;18.92;;;5.05;;
16403;SDS011;8311;50.158;8.642;2022-12-20T17:45:54;24.73;;;4.75;;
16403;SDS011;8311;50.158;8.642;2022-12-20T17:48:48;22.85;;;4.45;;
16403;SDS011;8311;50.158;8.642;2022-12-20T17:51:44;17.27;;;4.78;;
16403;SDS011;8311;50.158;8.642;2022-12-20T17:54:38;14.70;;;4.88;;
16403;SDS011;8311;50.158;8.642;2022-12-20T17:57:31;20.08;;;4.82;;
16403;SDS011;8311;50.158;8.642;2022-12-20T18:00:26;16.65;;;4.07;;
16403;SDS011;8311;50.158;8.642;2022-12-20T18:03:29;10.95;;;3.83;;
16403;SDS011;8311;50.158;8.642;2022-12-20T18:06:42;12.50;;;4.40;;
16403;SDS011;8311;50.158;8.642;2022-12-20T18:09:37;14.35;;;4.75;;